Time;durP1;ratioP1;P1;durP2;ratioP2;P2;SDS_P1;SDS_P2;PMS_P1;PMS_P2;Temp;Humidity;BMP_temperature;BMP_pressure;BME280_temperature;BME280_humidity;BME280_pressure;Samples;Min_cycle;Max_cycle;Signal;HPM_P1;HPM_P2
2022/10/06 00:00:52;;;;;;;0.20;0.20;;;13.40;99.90;;;;;;5034918;28;20037;-73
2022/10/06 00:03:21;;;;;;;0.20;0.20;;;13.40;99.90;;;;;;5034622;28;20354;-73
2022/10/06 00:05:48;;;;;;;0.20;0.20;;;13.60;99.90;;;;;;5034535;28;20021;-74
2022/10/06 00:08:15;;;;;;;0.20;0.20;;;13.60;99.90;;;;;;5034834;28;20112;-74
2022/10/06 00:10:40;;;;;;;0.10;0.10;;;13.70;99.90;;;;;;5034735;28;20080;-74
2022/10/06 00:13:08;;;;;;;0.20;0.20;;;13.60;99.90;;;;;;5034551;28;20037;-74
2022/10/06 00:15:34;;;;;;;0.20;0.20;;;13.60;99.90;;;;;;5032993;28;20049;-74
2022/10/06 00:18:00;;;;;;;0.20;0.20;;;13.40;99.90;;;;;;5034452;28;20064;-74
2022/10/06 00:20:27;;;;;;;0.10;0.10;;;13.30;99.90;;;;;;5033245;28;20033;-74
2022/10/06 00:22:55;;;;;;;0.10;0.10;;;13.50;99.90;;;;;;5034444;28;20100;-73
2022/10/06 00:25:23;;;;;;;0.10;0.10;;;13.60;99.90;;;;;;5032924;28;20028;-74
2022/10/06 00:27:50;;;;;;;0.20;0.20;;;13.60;99.90;;;;;;5033097;28;20112;-74
2022/10/06 00:30:19;;;;;;;0.20;0.20;;;13.50;99.90;;;;;;5016550;28;20034;-74
2022/10/06 00:32:57;;;;;;;0.20;0.20;;;13.60;99.90;;;;;;5016465;28;20057;-74
2022/10/06 00:35:25;;;;;;;0.20;0.20;;;13.60;99.90;;;;;;5034133;28;20056;-74
2022/10/06 00:37:51;;;;;;;0.20;0.20;;;13.70;99.90;;;;;;5032920;28;20068;-73
2022/10/06 00:40:18;;;;;;;0.20;0.20;;;13.80;99.90;;;;;;5034058;28;20120;-73
2022/10/06 00:42:49;;;;;;;0.20;0.20;;;13.70;99.90;;;;;;5033943;28;20080;-74
2022/10/06 00:45:17;;;;;;;;;;;13.60;99.90;;;;;;5034272;28;20485;-74
2022/10/06 00:47:43;;;;;;;0.10;0.10;;;13.60;99.90;;;;;;5032736;28;19905;-74
2022/10/06 00:50:11;;;;;;;0.13;0.13;;;13.60;99.90;;;;;;5032824;28;20029;-74
2022/10/06 00:52:38;;;;;;;0.10;0.10;;;13.40;99.90;;;;;;5033504;28;20033;-74
2022/10/06 00:55:08;;;;;;;0.20;0.20;;;13.30;99.90;;;;;;5033596;28;20026;-74
2022/10/06 00:57:38;;;;;;;0.47;0.47;;;13.40;99.90;;;;;;5033730;28;20022;-73
2022/10/06 01:00:08;;;;;;;0.20;0.20;;;13.30;99.90;;;;;;5033713;28;20473;-74
2022/10/06 01:02:43;;;;;;;0.20;0.20;;;13.30;99.90;;;;;;5031818;28;20104;-74
2022/10/06 01:05:15;;;;;;;10.32;2.25;;;13.20;99.90;;;;;;5033514;28;20022;-74
2022/10/06 01:07:40;;;;;;;0.20;0.20;;;13.30;99.90;;;;;;5033676;28;20036;-74
2022/10/06 01:10:06;;;;;;;0.20;0.20;;;13.40;99.90;;;;;;5033529;28;20030;-74
2022/10/06 01:12:33;;;;;;;0.20;0.20;;;13.20;99.90;;;;;;5032226;28;20078;-74
2022/10/06 01:14:59;;;;;;;0.10;0.10;;;13.30;99.90;;;;;;5032080;28;20026;-74
2022/10/06 01:17:31;;;;;;;0.15;0.15;;;13.20;99.90;;;;;;5033426;28;20029;-74
2022/10/06 01:20:18;;;;;;;0.15;0.15;;;13.40;99.90;;;;;;5032065;28;20104;-74
2022/10/06 01:22:47;;;;;;;0.10;0.10;;;13.30;99.90;;;;;;5033300;28;20026;-74
2022/10/06 01:25:15;;;;;;;0.20;0.20;;;13.30;99.90;;;;;;5031962;28;20040;-74
2022/10/06 01:27:44;;;;;;;0.10;0.10;;;13.20;99.90;;;;;;5032080;28;20521;-74
2022/10/06 01:30:14;;;;;;;0.20;0.20;;;13.10;99.90;;;;;;5033292;28;20485;-74
2022/10/06 01:32:40;;;;;;;0.20;0.20;;;13.00;99.90;;;;;;5033152;28;20075;-74
2022/10/06 01:35:08;;;;;;;0.20;0.20;;;12.60;99.90;;;;;;5032852;28;20029;-74
2022/10/06 01:37:34;;;;;;;0.20;0.20;;;12.50;99.90;;;;;;5031863;28;20024;-74
2022/10/06 01:40:00;;;;;;;0.13;0.13;;;12.40;99.90;;;;;;5031643;28;20029;-74
2022/10/06 01:42:30;;;;;;;0.10;0.10;;;12.40;99.90;;;;;;5032718;28;20079;-74
2022/10/06 01:44:56;;;;;;;0.20;0.20;;;12.30;99.90;;;;;;5031391;28;20018;-74
2022/10/06 01:47:22;;;;;;;0.20;0.20;;;12.30;99.90;;;;;;5032819;28;20033;-73
2022/10/06 01:49:48;;;;;;;0.10;0.10;;;12.20;99.90;;;;;;5031600;28;20116;-73
2022/10/06 01:52:13;;;;;;;0.20;0.20;;;12.10;99.90;;;;;;5031085;28;20052;-74
2022/10/06 01:54:39;;;;;;;0.10;0.10;;;12.20;99.90;;;;;;5032821;28;20033;-74
2022/10/06 01:57:07;;;;;;;0.20;0.20;;;12.10;99.90;;;;;;5031380;28;20478;-74
2022/10/06 01:59:33;;;;;;;0.20;0.20;;;12.20;99.90;;;;;;5032725;28;20021;-73
2022/10/06 02:01:59;;;;;;;0.20;0.20;;;12.10;99.90;;;;;;5030992;28;20111;-73
2022/10/06 02:04:25;;;;;;;0.15;0.15;;;12.00;99.90;;;;;;5032376;28;20076;-72
2022/10/06 02:06:54;;;;;;;0.10;0.10;;;12.00;99.90;;;;;;5032246;28;20022;-72
2022/10/06 02:09:20;;;;;;;0.20;0.20;;;11.90;99.90;;;;;;5014681;28;20028;-72
2022/10/06 02:11:46;;;;;;;0.20;0.20;;;12.00;99.90;;;;;;5032429;28;20017;-72
2022/10/06 02:14:12;;;;;;;0.20;0.20;;;11.90;99.90;;;;;;5030871;28;20053;-72
2022/10/06 02:16:38;;;;;;;0.20;0.20;;;11.80;99.90;;;;;;5030848;28;20056;-72
2022/10/06 02:19:05;;;;;;;0.17;0.17;;;11.80;99.90;;;;;;5032293;28;20363;-72
2022/10/06 02:21:31;;;;;;;0.10;0.10;;;11.90;99.90;;;;;;5032302;28;20029;-72
2022/10/06 02:23:57;;;;;;;0.10;0.10;;;12.00;99.90;;;;;;5032037;28;20547;-72
2022/10/06 02:26:23;;;;;;;0.20;0.20;;;12.10;99.90;;;;;;5030688;28;20024;-72
2022/10/06 02:28:49;;;;;;;0.10;0.10;;;12.30;99.90;;;;;;5014441;28;20021;-72
2022/10/06 02:31:15;;;;;;;0.20;0.20;;;12.40;99.90;;;;;;5030826;28;20028;-72
2022/10/06 02:33:42;;;;;;;0.20;0.20;;;12.50;99.90;;;;;;5030815;28;20104;-72
2022/10/06 02:36:14;;;;;;;0.20;0.20;;;12.60;99.90;;;;;;5031916;28;20052;-72
2022/10/06 02:38:40;;;;;;;0.20;0.20;;;12.50;99.90;;;;;;5032023;28;20720;-72
2022/10/06 02:41:06;;;;;;;0.10;0.10;;;12.60;99.90;;;;;;5032006;28;20057;-72
2022/10/06 02:43:34;;;;;;;0.20;0.20;;;12.70;99.90;;;;;;5031749;28;20128;-72
2022/10/06 02:46:10;;;;;;;0.20;0.20;;;12.70;99.90;;;;;;5014045;28;20370;-72
2022/10/06 02:48:37;;;;;;;0.30;0.30;;;12.70;99.90;;;;;;5030701;28;20025;-73
2022/10/06 02:51:14;;;;;;;0.40;0.40;;;12.70;99.90;;;;;;5031890;28;20172;-72
2022/10/06 02:53:42;;;;;;;0.20;0.20;;;12.60;99.90;;;;;;5030427;28;20021;-73
2022/10/06 02:56:21;;;;;;;0.10;0.10;;;12.60;99.90;;;;;;5030499;28;20104;-72
2022/10/06 02:58:49;;;;;;;0.20;0.20;;;12.40;99.90;;;;;;5030706;28;20030;-73
2022/10/06 03:01:18;;;;;;;0.17;0.17;;;12.30;99.90;;;;;;5031853;28;20033;-73
2022/10/06 03:03:45;;;;;;;0.20;0.20;;;12.40;99.90;;;;;;5030039;28;20112;-73
2022/10/06 03:06:20;;;;;;;0.20;0.20;;;12.50;99.90;;;;;;5033890;28;20025;-73
2022/10/06 03:08:51;;;;;;;0.10;0.10;;;12.50;99.90;;;;;;5034565;28;20156;-73
2022/10/06 03:11:18;;;;;;;0.20;0.20;;;12.40;99.90;;;;;;5018021;28;20072;-73
2022/10/06 03:13:45;;;;;;;0.17;0.17;;;12.30;99.90;;;;;;5034403;28;20032;-74
2022/10/06 03:16:18;;;;;;;0.20;0.20;;;12.40;99.90;;;;;;5035384;28;20021;-74
2022/10/06 03:18:45;;;;;;;0.20;0.20;;;12.40;99.90;;;;;;5035631;28;20026;-74
2022/10/06 03:21:16;;;;;;;0.20;0.20;;;12.40;99.90;;;;;;5034294;28;20389;-74
2022/10/06 03:23:43;;;;;;;0.28;0.28;;;12.40;99.90;;;;;;5035327;28;20493;-74
2022/10/06 03:26:09;;;;;;;0.20;0.20;;;12.30;99.90;;;;;;5033942;28;20026;-74
2022/10/06 03:28:35;;;;;;;0.40;0.40;;;12.20;99.90;;;;;;5034054;28;20021;-74
2022/10/06 03:31:02;;;;;;;0.20;0.20;;;12.10;99.90;;;;;;5035416;28;20056;-74
2022/10/06 03:33:29;;;;;;;0.22;0.22;;;12.00;99.90;;;;;;5035301;28;20533;-73
2022/10/06 03:36:16;;;;;;;0.20;0.20;;;11.90;99.90;;;;;;5035126;28;20104;-74
2022/10/06 03:38:42;;;;;;;0.20;0.20;;;11.80;99.90;;;;;;5034002;28;20116;-73
2022/10/06 03:41:20;;;;;;;0.25;0.25;;;11.70;99.90;;;;;;5033801;28;20048;-73
2022/10/06 03:43:48;;;;;;;0.20;0.20;;;11.90;99.90;;;;;;5034999;28;20022;-73
2022/10/06 03:46:17;;;;;;;0.20;0.20;;;11.90;99.90;;;;;;5034934;28;20024;-73
2022/10/06 03:48:43;;;;;;;0.20;0.20;;;11.90;99.90;;;;;;5035017;28;20037;-74
2022/10/06 03:51:20;;;;;;;0.30;0.30;;;11.80;99.90;;;;;;5034973;28;20021;-74
2022/10/06 03:53:51;;;;;;;0.20;0.20;;;11.70;99.90;;;;;;5034871;28;20025;-73
2022/10/06 03:56:24;;;;;;;0.20;0.20;;;11.70;99.90;;;;;;5033449;28;20057;-73
2022/10/06 03:58:53;;;;;;;0.20;0.20;;;11.70;99.90;;;;;;5034818;28;20478;-73
2022/10/06 04:01:30;;;;;;;0.20;0.20;;;11.70;99.90;;;;;;5034812;28;20025;-74
2022/10/06 04:03:58;;;;;;;0.20;0.20;;;11.60;99.90;;;;;;5034291;28;20037;-74
2022/10/06 04:06:25;;;;;;;0.20;0.20;;;11.50;99.90;;;;;;5034540;28;20025;-74
2022/10/06 04:08:52;;;;;;;0.20;0.20;;;11.50;99.90;;;;;;5034741;28;20024;-73
2022/10/06 04:11:21;;;;;;;0.20;0.20;;;11.50;99.90;;;;;;5034636;28;20113;-74
2022/10/06 04:13:51;;;;;;;0.20;0.20;;;11.50;99.90;;;;;;5016728;28;20049;-74
2022/10/06 04:16:20;;;;;;;0.20;0.20;;;11.50;99.90;;;;;;5032742;28;20025;-74
2022/10/06 04:18:49;;;;;;;0.20;0.20;;;11.30;99.90;;;;;;5034525;28;20074;-74
2022/10/06 04:21:15;;;;;;;0.20;0.20;;;11.20;99.90;;;;;;5034319;28;20385;-74
2022/10/06 04:23:41;;;;;;;0.20;0.20;;;11.20;99.90;;;;;;5034252;28;20029;-74
2022/10/06 04:26:18;;;;;;;0.20;0.20;;;11.10;99.90;;;;;;5034255;28;20093;-73
2022/10/06 04:28:45;;;;;;;0.20;0.20;;;11.00;99.90;;;;;;5034238;28;20068;-73
2022/10/06 04:31:15;;;;;;;1.95;0.30;;;11.00;99.90;;;;;;5034201;28;20018;-73
2022/10/06 04:33:42;;;;;;;0.20;0.20;;;10.90;99.90;;;;;;5034485;28;20485;-74
2022/10/06 04:36:11;;;;;;;0.28;0.28;;;10.90;99.90;;;;;;5032720;28;20429;-74
2022/10/06 04:38:37;;;;;;;0.20;0.20;;;10.90;99.90;;;;;;5032967;28;20057;-73
2022/10/06 04:41:09;;;;;;;0.20;0.20;;;10.80;99.90;;;;;;5034036;28;20061;-74
2022/10/06 04:43:35;;;;;;;0.20;0.20;;;10.80;99.90;;;;;;5033904;28;20029;-72
2022/10/06 04:46:02;;;;;;;0.10;0.10;;;10.80;99.90;;;;;;5033719;28;20041;-72
2022/10/06 04:48:29;;;;;;;0.20;0.20;;;10.80;99.90;;;;;;5033942;28;20030;-74
2022/10/06 04:51:12;;;;;;;0.13;0.13;;;11.00;99.90;;;;;;5033639;28;20025;-74
2022/10/06 04:53:38;;;;;;;0.20;0.20;;;10.90;99.90;;;;;;5032493;28;20493;-74
2022/10/06 04:56:13;;;;;;;0.28;0.28;;;10.80;99.90;;;;;;5032304;28;20380;-74
2022/10/06 04:58:44;;;;;;;0.40;0.40;;;10.80;99.90;;;;;;5015964;28;20022;-74
2022/10/06 05:01:28;;;;;;;0.20;0.20;;;10.90;99.90;;;;;;5033654;28;20470;-74
2022/10/06 05:03:56;;;;;;;0.20;0.20;;;10.90;99.90;;;;;;5033079;28;20032;-74
2022/10/06 05:06:25;;;;;;;0.20;0.20;;;10.90;99.90;;;;;;5031898;28;20025;-74
2022/10/06 05:08:53;;;;;;;0.20;0.20;;;11.00;99.90;;;;;;5033477;28;20037;-74
2022/10/06 05:11:21;;;;;;;0.10;0.10;;;10.90;99.90;;;;;;5015583;28;20033;-74
2022/10/06 05:13:49;;;;;;;0.20;0.20;;;10.90;99.90;;;;;;5033253;28;20030;-74
2022/10/06 05:16:16;;;;;;;0.20;0.20;;;11.00;99.90;;;;;;5031777;28;20062;-74
2022/10/06 05:18:42;;;;;;;0.50;0.50;;;11.00;99.90;;;;;;5033300;28;20024;-74
2022/10/06 05:21:12;;;;;;;0.30;0.30;;;11.00;99.90;;;;;;5022086;28;20465;-73
2022/10/06 05:23:40;;;;;;;0.20;0.20;;;11.00;99.90;;;;;;5019046;28;20040;-73
2022/10/06 05:26:07;;;;;;;0.20;0.20;;;11.10;99.90;;;;;;5017116;28;20029;-73
2022/10/06 05:28:33;;;;;;;0.30;0.30;;;11.20;99.90;;;;;;5016979;28;20032;-72
2022/10/06 05:31:03;;;;;;;0.20;0.20;;;11.30;99.90;;;;;;5018374;28;20030;-74
2022/10/06 05:33:32;;;;;;;0.20;0.20;;;11.20;99.90;;;;;;5019541;28;20113;-74
2022/10/06 05:36:00;;;;;;;0.20;0.20;;;11.10;99.90;;;;;;5017128;28;20029;-74
2022/10/06 05:38:27;;;;;;;0.15;0.15;;;11.10;99.90;;;;;;5000678;28;20029;-73
2022/10/06 05:41:19;;;;;;;0.15;0.15;;;11.10;99.90;;;;;;5001360;28;20033;-74
2022/10/06 05:43:46;;;;;;;0.17;0.17;;;11.20;99.90;;;;;;5017545;28;20052;-73
2022/10/06 05:46:23;;;;;;;0.20;0.20;;;11.20;99.90;;;;;;5016727;28;20040;-74
2022/10/06 05:48:54;;;;;;;0.20;0.20;;;11.20;99.90;;;;;;5017629;28;20029;-73
2022/10/06 05:51:22;;;;;;;0.20;0.20;;;11.10;99.90;;;;;;5018290;28;20029;-74
2022/10/06 05:53:48;;;;;;;0.20;0.20;;;11.20;99.90;;;;;;5018847;28;20413;-74
2022/10/06 05:56:31;;;;;;;0.20;0.20;;;11.30;99.90;;;;;;5016279;28;20053;-71
2022/10/06 05:58:58;;;;;;;0.20;0.20;;;11.30;99.90;;;;;;5018671;28;20078;-72
2022/10/06 06:01:24;;;;;;;0.20;0.20;;;11.30;99.90;;;;;;5018224;28;20040;-74
2022/10/06 06:03:54;;;;;;;0.20;0.20;;;11.20;99.90;;;;;;5017309;28;20033;-74
2022/10/06 06:06:27;;;;;;;0.15;0.15;;;11.30;99.90;;;;;;5016425;28;20829;-74
2022/10/06 06:08:54;;;;;;;0.22;0.22;;;11.40;99.90;;;;;;5016934;28;20026;-73
2022/10/06 06:11:26;;;;;;;0.30;0.30;;;11.50;99.90;;;;;;5016717;28;20180;-73
2022/10/06 06:13:56;;;;;;;0.20;0.20;;;11.80;99.90;;;;;;5017502;28;20034;-74
2022/10/06 06:16:23;;;;;;;0.20;0.20;;;11.80;99.90;;;;;;5016717;28;20021;-74
2022/10/06 06:18:49;;;;;;;0.13;0.13;;;11.80;99.90;;;;;;5017289;28;20038;-74
2022/10/06 06:21:15;;;;;;;0.10;0.10;;;11.80;99.90;;;;;;5016232;28;20040;-74
2022/10/06 06:23:45;;;;;;;0.20;0.20;;;12.00;99.90;;;;;;5016968;28;20631;-74
2022/10/06 06:26:13;;;;;;;0.10;0.10;;;12.10;99.90;;;;;;5018388;28;20070;-74
2022/10/06 06:28:40;;;;;;;0.13;0.13;;;12.20;99.90;;;;;;5017030;28;20397;-73
2022/10/06 06:31:16;;;;;;;0.20;0.20;;;12.30;99.90;;;;;;5016711;28;20030;-73
2022/10/06 06:33:42;;;;;;;0.60;0.45;;;12.30;99.90;;;;;;5018156;28;20087;-74
2022/10/06 06:36:15;;;;;;;0.20;0.20;;;12.50;99.90;;;;;;5018902;28;20028;-74
2022/10/06 06:38:41;;;;;;;0.20;0.20;;;12.50;99.90;;;;;;5018178;28;20101;-73
2022/10/06 06:41:19;;;;;;;0.13;0.13;;;12.60;99.90;;;;;;5017754;28;20417;-73
2022/10/06 06:43:45;;;;;;;0.20;0.20;;;12.80;99.90;;;;;;5017935;28;20490;-72
2022/10/06 06:46:15;;;;;;;0.35;0.35;;;12.80;99.90;;;;;;5016826;28;20033;-72
2022/10/06 06:48:41;;;;;;;0.20;0.20;;;12.80;99.90;;;;;;5000183;28;20883;-73
2022/10/06 06:51:10;;;;;;;0.20;0.20;;;12.90;99.90;;;;;;5018389;28;20365;-73
2022/10/06 06:53:36;;;;;;;0.20;0.20;;;12.90;99.90;;;;;;5017851;28;20022;-73
2022/10/06 06:56:03;;;;;;;0.10;0.10;;;13.00;99.90;;;;;;5017411;28;20095;-73
2022/10/06 06:58:29;;;;;;;0.10;0.10;;;13.20;99.90;;;;;;5016674;28;20033;-73
2022/10/06 07:01:07;;;;;;;0.10;0.10;;;13.30;99.90;;;;;;5018235;28;20037;-74
2022/10/06 07:03:33;;;;;;;0.20;0.20;;;13.40;99.90;;;;;;5016265;28;20033;-71
2022/10/06 07:06:08;;;;;;;0.20;0.20;;;13.50;99.90;;;;;;5015198;28;21400;-72
2022/10/06 07:08:36;;;;;;;0.20;0.20;;;13.60;99.90;;;;;;5012874;28;20037;-72
2022/10/06 07:11:17;;;;;;;0.20;0.20;;;13.70;99.90;;;;;;5018688;28;21355;-74
2022/10/06 07:13:44;;;;;;;0.20;0.20;;;13.80;99.90;;;;;;4999368;28;20029;-73
2022/10/06 07:27:44;;;;;;;0.10;0.10;;;14.30;99.90;;;;;;4993725;28;20041;-76
2022/10/06 07:30:17;;;;;;;0.20;0.20;;;14.50;99.90;;;;;;5018627;28;20087;-75
2022/10/06 07:32:45;;;;;;;0.70;0.50;;;14.50;99.90;;;;;;5018178;28;20029;-76
2022/10/06 07:35:11;;;;;;;0.35;0.35;;;14.60;99.90;;;;;;5017677;28;20072;-76
2022/10/06 07:37:37;;;;;;;0.13;0.13;;;14.70;99.90;;;;;;5017874;28;21309;-75
2022/10/06 07:40:07;;;;;;;0.10;0.10;;;14.70;99.90;;;;;;5018031;28;20032;-76
2022/10/06 07:42:52;;;;;;;0.20;0.20;;;14.90;99.90;;;;;;5016397;28;20042;-76
2022/10/06 07:45:38;;;;;;;0.10;0.10;;;14.90;99.90;;;;;;5018242;28;20030;-75
2022/10/06 07:48:09;;;;;;;0.52;0.52;;;15.10;99.90;;;;;;5017745;28;20037;-76
2022/10/06 07:50:37;;;;;;;0.10;0.10;;;15.30;99.90;;;;;;5016950;28;20028;-75
2022/10/06 07:53:07;;;;;;;0.10;0.10;;;15.40;99.90;;;;;;5019561;28;20041;-76
2022/10/06 07:55:34;;;;;;;0.20;0.20;;;15.50;99.90;;;;;;5021353;28;20045;-76
2022/10/06 07:58:00;;;;;;;0.15;0.15;;;15.70;99.90;;;;;;5020988;28;20034;-76
2022/10/06 08:00:26;;;;;;;0.20;0.20;;;15.80;99.90;;;;;;5021440;28;20425;-75
2022/10/06 08:02:53;;;;;;;0.20;0.20;;;15.80;99.90;;;;;;5021017;28;20053;-76
2022/10/06 08:05:20;;;;;;;0.20;0.20;;;16.10;99.90;;;;;;5020393;28;20028;-76
2022/10/06 08:07:46;;;;;;;0.10;0.10;;;16.10;99.90;;;;;;5020238;28;20025;-75
2022/10/06 08:10:11;;;;;;;0.10;0.10;;;16.20;99.90;;;;;;5021682;28;20033;-75
2022/10/06 08:12:39;;;;;;;0.80;0.80;;;16.20;99.90;;;;;;5019778;28;20703;-76
2022/10/06 08:15:10;;;;;;;0.10;0.10;;;16.30;99.90;;;;;;5019359;28;20041;-75
2022/10/06 08:17:36;;;;;;;0.30;0.30;;;16.40;99.90;;;;;;5021537;28;20124;-75
2022/10/06 08:20:04;;;;;;;0.10;0.10;;;16.50;99.90;;;;;;5020964;28;20042;-75
2022/10/06 08:22:30;;;;;;;0.60;0.60;;;16.50;99.90;;;;;;5036584;22;20153;-75
2022/10/06 08:24:56;;;;;;;0.10;0.10;;;16.60;99.90;;;;;;5020182;28;20036;-76
2022/10/06 08:27:26;;;;;;;0.10;0.10;;;16.70;99.90;;;;;;5020426;28;20382;-76
2022/10/06 08:29:53;;;;;;;0.45;0.45;;;16.80;99.90;;;;;;5003184;28;20030;-76
2022/10/06 08:32:19;;;;;;;0.10;0.10;;;16.90;99.90;;;;;;5010552;28;20057;-76
2022/10/06 08:34:46;;;;;;;0.20;0.20;;;16.90;99.90;;;;;;5003027;28;20037;-76
2022/10/06 08:37:13;;;;;;;0.10;0.10;;;17.00;99.90;;;;;;5020671;28;20063;-76
2022/10/06 08:39:41;;;;;;;0.30;0.30;;;17.00;99.90;;;;;;5010524;28;20033;-76
2022/10/06 08:42:17;;;;;;;0.20;0.20;;;16.90;99.90;;;;;;5020635;28;20029;-76
2022/10/06 08:44:55;;;;;;;0.10;0.10;;;17.00;99.90;;;;;;5019610;28;20056;-76
2022/10/06 08:47:23;;;;;;;0.10;0.10;;;17.10;99.90;;;;;;5010985;28;20083;-76
2022/10/06 08:49:55;;;;;;;0.10;0.10;;;17.10;99.90;;;;;;5020215;28;20021;-76
2022/10/06 08:53:06;;;;;;;0.20;0.20;;;17.20;99.90;;;;;;5002718;28;20143;-75
2022/10/06 08:55:46;;;;;;;27.85;2.45;;;17.30;99.90;;;;;;5014761;28;20042;-75
2022/10/06 08:58:29;;;;;;;0.20;0.20;;;17.30;99.90;;;;;;5020683;28;20030;-75
2022/10/06 09:01:12;;;;;;;0.20;0.20;;;17.50;99.90;;;;;;5019073;28;20057;-75
2022/10/06 09:03:38;;;;;;;0.38;0.28;;;17.90;99.90;;;;;;5020368;28;20027;-75
2022/10/06 09:06:25;;;;;;;4.32;0.63;;;18.20;99.90;;;;;;5019640;28;20034;-75
2022/10/06 09:09:00;;;;;;;0.32;0.30;;;18.40;99.90;;;;;;5019890;28;20025;-76
2022/10/06 09:11:46;;;;;;;0.10;0.10;;;18.80;99.90;;;;;;5020452;28;20397;-75
2022/10/06 09:14:33;;;;;;;0.10;0.10;;;18.90;99.90;;;;;;4964729;28;20512;-75
2022/10/06 09:17:04;;;;;;;0.10;0.10;;;19.50;99.60;;;;;;5019284;28;20033;-76
2022/10/06 09:19:44;;;;;;;0.13;0.13;;;20.00;98.00;;;;;;5008828;28;20682;-75
2022/10/06 09:22:21;;;;;;;0.10;0.10;;;20.20;97.30;;;;;;5018748;28;20041;-76
2022/10/06 09:24:52;;;;;;;0.43;0.40;;;20.70;96.50;;;;;;5019859;28;20509;-76
2022/10/06 09:27:18;;;;;;;0.13;0.13;;;21.00;94.60;;;;;;5011998;28;20049;-75
2022/10/06 09:29:47;;;;;;;0.52;0.52;;;20.90;93.80;;;;;;5021822;28;20080;-76
2022/10/06 09:32:14;;;;;;;0.10;0.10;;;21.20;94.20;;;;;;5020148;28;20037;-76
2022/10/06 09:34:47;;;;;;;0.65;0.52;;;21.40;93.10;;;;;;5008136;28;20034;-76
2022/10/06 09:37:14;;;;;;;0.03;0.03;;;21.70;92.20;;;;;;5020063;28;20026;-75
2022/10/06 09:39:49;;;;;;;0.30;0.30;;;21.90;91.10;;;;;;5019934;28;20096;-77
2022/10/06 09:42:22;;;;;;;1.20;1.10;;;22.10;89.90;;;;;;5010388;28;20036;-76
2022/10/06 09:45:22;;;;;;;0.00;0.00;;;22.00;89.20;;;;;;5019514;28;20059;-76
2022/10/06 09:47:49;;;;;;;0.20;0.20;;;22.30;88.10;;;;;;5019939;28;20524;-76
2022/10/06 09:50:22;;;;;;;0.22;0.22;;;22.80;86.60;;;;;;4990950;28;20151;-76
2022/10/06 09:52:58;;;;;;;0.57;0.57;;;23.00;83.20;;;;;;5020214;28;20017;-75
2022/10/06 09:55:29;;;;;;;0.00;0.00;;;23.10;81.80;;;;;;5020522;28;20721;-76
2022/10/06 09:58:01;;;;;;;2.28;2.17;;;23.20;82.40;;;;;;5011119;28;20022;-76
2022/10/06 10:00:34;;;;;;;0.20;0.20;;;23.40;78.80;;;;;;5020495;28;20033;-76
2022/10/06 10:03:04;;;;;;;0.32;0.32;;;23.70;79.90;;;;;;4993069;28;20038;-77
2022/10/06 10:05:44;;;;;;;0.10;0.10;;;24.30;78.00;;;;;;4993690;28;20038;-76
2022/10/06 10:08:13;;;;;;;0.00;0.00;;;24.30;74.90;;;;;;5021283;28;20021;-76
2022/10/06 10:10:39;;;;;;;0.00;0.00;;;24.40;73.90;;;;;;5020989;28;20781;-77
2022/10/06 10:13:23;;;;;;;0.00;0.00;;;24.30;72.40;;;;;;5020545;28;20052;-77
2022/10/06 10:15:56;;;;;;;0.10;0.10;;;23.80;74.90;;;;;;5019200;28;20044;-76
2022/10/06 10:18:26;;;;;;;0.20;0.20;;;24.20;74.60;;;;;;5010179;28;20044;-77
2022/10/06 10:20:56;;;;;;;0.10;0.10;;;24.10;74.10;;;;;;5007980;28;20381;-78
2022/10/06 10:23:28;;;;;;;0.20;0.20;;;24.30;74.20;;;;;;5017438;28;20037;-77
2022/10/06 10:26:12;;;;;;;0.00;0.00;;;24.70;71.70;;;;;;5009308;28;20040;-78
2022/10/06 10:28:50;;;;;;;1.00;0.45;;;24.90;72.10;;;;;;4991912;28;20026;-77
2022/10/06 10:31:42;;;;;;;0.00;0.00;;;25.10;70.50;;;;;;5018319;28;20021;-78
2022/10/06 10:34:14;;;;;;;0.10;0.10;;;25.50;69.70;;;;;;5003038;28;20065;-77
2022/10/06 10:36:49;;;;;;;0.00;0.00;;;25.70;67.20;;;;;;5007942;28;20021;-77
2022/10/06 10:39:29;;;;;;;0.15;0.15;;;25.60;67.80;;;;;;5019438;28;20416;-77
2022/10/06 10:42:00;;;;;;;0.30;0.30;;;25.90;66.30;;;;;;5018755;28;20021;-78
2022/10/06 10:44:36;;;;;;;0.13;0.13;;;26.20;66.40;;;;;;4993040;28;20393;-79
2022/10/06 10:47:13;;;;;;;0.20;0.20;;;26.70;64.70;;;;;;5007546;28;20034;-76
2022/10/06 10:49:44;;;;;;;0.10;0.10;;;26.80;62.70;;;;;;5019314;28;20539;-77
2022/10/06 10:52:24;;;;;;;0.07;0.07;;;27.00;61.30;;;;;;5017992;28;20029;-77
2022/10/06 10:55:06;;;;;;;3.63;0.30;;;27.20;60.90;;;;;;5009169;28;20288;-77
2022/10/06 10:57:39;;;;;;;0.10;0.10;;;26.80;61.10;;;;;;5023555;28;20140;-77
2022/10/06 11:00:20;;;;;;;0.00;0.00;;;26.60;61.70;;;;;;4994745;28;20052;-76
2022/10/06 11:02:46;;;;;;;;;;;27.10;61.00;;;;;;5020036;28;20033;-76
2022/10/06 11:05:33;;;;;;;1.63;1.13;;;26.60;61.30;;;;;;5001534;28;19923;-78
2022/10/06 11:08:09;;;;;;;0.10;0.10;;;26.60;62.40;;;;;;5018970;28;20561;-77
2022/10/06 11:10:48;;;;;;;0.10;0.10;;;26.40;62.20;;;;;;5008619;28;20708;-77
2022/10/06 11:13:36;;;;;;;0.00;0.00;;;27.00;60.90;;;;;;5018187;28;20063;-77
2022/10/06 11:16:07;;;;;;;0.00;0.00;;;27.60;59.60;;;;;;5001154;28;20061;-78
2022/10/06 11:18:58;;;;;;;0.00;0.00;;;27.50;59.00;;;;;;5008529;28;20036;-76
2022/10/06 11:21:55;;;;;;;0.00;0.00;;;27.60;59.40;;;;;;5009646;28;20041;-77
2022/10/06 11:24:56;;;;;;;0.00;0.00;;;27.00;59.50;;;;;;5018545;28;20112;-77
2022/10/06 11:28:03;;;;;;;0.00;0.00;;;27.20;58.40;;;;;;4978424;28;20045;-78
2022/10/06 11:30:34;;;;;;;0.00;0.00;;;26.30;60.80;;;;;;4945088;28;20038;-77
2022/10/06 11:33:19;;;;;;;0.10;0.10;;;25.40;62.20;;;;;;5011494;28;20095;-78
2022/10/06 11:35:47;;;;;;;0.00;0.00;;;25.60;63.50;;;;;;5011849;28;20546;-78
2022/10/06 11:38:39;;;;;;;0.30;0.25;;;25.80;62.90;;;;;;5010810;28;20648;-76
2022/10/06 11:41:30;;;;;;;0.35;0.35;;;26.20;61.30;;;;;;5022530;28;20682;-78
2022/10/06 11:44:15;;;;;;;17.90;4.28;;;26.40;60.20;;;;;;5022305;28;20030;-76
2022/10/06 11:46:51;;;;;;;0.00;0.00;;;26.90;59.20;;;;;;5027610;28;20037;-78
2022/10/06 11:49:31;;;;;;;2.03;0.43;;;27.10;58.70;;;;;;5022057;28;20059;-77
2022/10/06 11:52:06;;;;;;;0.00;0.00;;;27.50;58.40;;;;;;5021826;28;20161;-76
2022/10/06 11:55:13;;;;;;;1.98;0.38;;;27.80;57.90;;;;;;5011795;28;20030;-77
2022/10/06 11:58:03;;;;;;;0.25;0.15;;;28.10;56.40;;;;;;5006318;28;20060;-77
2022/10/06 12:00:32;;;;;;;1.25;0.57;;;28.40;57.00;;;;;;5025137;28;20113;-77
2022/10/06 12:03:27;;;;;;;0.88;0.38;;;28.70;57.10;;;;;;5008024;28;20025;-77
2022/10/06 12:05:53;;;;;;;0.03;0.03;;;28.00;58.30;;;;;;5011086;28;20033;-77
2022/10/06 12:08:38;;;;;;;0.00;0.00;;;28.30;57.20;;;;;;5009979;28;20060;-77
2022/10/06 12:11:37;;;;;;;0.17;0.17;;;28.50;57.00;;;;;;5027627;28;20033;-77
2022/10/06 12:14:07;;;;;;;0.75;0.65;;;27.50;57.70;;;;;;5020920;28;20025;-77
2022/10/06 12:16:39;;;;;;;0.77;0.20;;;26.70;58.70;;;;;;5021866;28;20028;-77
2022/10/06 12:19:22;;;;;;;0.00;0.00;;;26.10;60.00;;;;;;4995258;28;20551;-77
2022/10/06 12:21:57;;;;;;;0.00;0.00;;;25.50;63.10;;;;;;5009348;28;20037;-77
2022/10/06 12:24:31;;;;;;;0.10;0.10;;;25.00;63.20;;;;;;5018867;28;20789;-77
2022/10/06 12:27:26;;;;;;;0.60;0.30;;;24.50;65.00;;;;;;5020193;28;20029;-77
2022/10/06 12:30:10;;;;;;;0.00;0.00;;;24.70;64.60;;;;;;5021234;28;20667;-76
2022/10/06 12:32:54;;;;;;;0.22;0.22;;;25.00;65.70;;;;;;5021823;28;20059;-76
2022/10/06 12:35:28;;;;;;;0.22;0.22;;;25.10;63.90;;;;;;5022171;28;20029;-75
2022/10/06 12:37:57;;;;;;;0.00;0.00;;;24.30;65.30;;;;;;5021802;28;20037;-75
2022/10/06 12:40:39;;;;;;;0.00;0.00;;;23.40;68.70;;;;;;5021117;28;20013;-75
2022/10/06 12:43:17;;;;;;;0.10;0.10;;;24.00;66.70;;;;;;5016648;28;20670;-75
2022/10/06 12:46:10;;;;;;;0.30;0.20;;;24.70;65.10;;;;;;5010557;28;20041;-77
2022/10/06 12:49:11;;;;;;;0.90;0.20;;;25.10;63.40;;;;;;5023501;28;20022;-77
2022/10/06 12:51:43;;;;;;;0.08;0.08;;;25.40;61.70;;;;;;5006060;28;20052;-76
2022/10/06 12:54:21;;;;;;;0.00;0.00;;;25.70;62.30;;;;;;4994147;28;20041;-76
2022/10/06 12:57:01;;;;;;;0.00;0.00;;;26.00;60.50;;;;;;5029950;28;20029;-77
2022/10/06 12:59:33;;;;;;;0.00;0.00;;;26.10;61.10;;;;;;5021401;28;20059;-78
2022/10/06 13:02:08;;;;;;;0.47;0.47;;;25.70;61.00;;;;;;5022546;28;20040;-76
2022/10/06 13:04:48;;;;;;;0.10;0.10;;;24.80;65.00;;;;;;5021091;28;20033;-77
2022/10/06 13:07:21;;;;;;;0.10;0.00;;;24.30;67.20;;;;;;5020370;28;20053;-77
2022/10/06 13:09:50;;;;;;;0.38;0.15;;;24.40;67.00;;;;;;5007873;28;20083;-77
2022/10/06 13:12:35;;;;;;;0.55;0.28;;;24.30;66.60;;;;;;5010680;28;20081;-76
2022/10/06 13:15:23;;;;;;;0.20;0.20;;;24.10;68.10;;;;;;5008772;28;20049;-75
2022/10/06 13:18:11;;;;;;;0.68;0.68;;;23.50;69.70;;;;;;5021027;28;20034;-76
2022/10/06 13:20:48;;;;;;;0.20;0.13;;;23.70;69.40;;;;;;5021421;28;20029;-75
2022/10/06 13:23:20;;;;;;;0.08;0.08;;;23.50;70.30;;;;;;5022807;28;20045;-77
2022/10/06 13:26:00;;;;;;;0.10;0.10;;;23.50;71.20;;;;;;5011378;28;20041;-76